createdAt,value
2022-12-14T00:02:31.978Z,62.70
2022-12-14T00:05:17.309Z,62.92
2022-12-14T00:08:01.865Z,62.34
2022-12-14T00:10:46.769Z,61.94
2022-12-14T00:13:31.431Z,62.11
2022-12-14T00:16:16.249Z,62.19
2022-12-14T00:19:00.891Z,61.85
2022-12-14T00:21:45.710Z,62.21
2022-12-14T00:24:30.538Z,62.42
2022-12-14T00:27:15.211Z,62.16
2022-12-14T00:30:00.038Z,62.75
2022-12-14T00:32:44.834Z,62.88
2022-12-14T00:35:29.571Z,63.37
2022-12-14T00:38:14.389Z,62.88
2022-12-14T00:40:59.305Z,61.23
2022-12-14T00:43:44.118Z,61.09
2022-12-14T00:46:29.000Z,61.07
2022-12-14T00:49:14.174Z,62.25
2022-12-14T00:51:58.962Z,62.92
2022-12-14T00:54:43.690Z,62.78
2022-12-14T00:57:28.325Z,62.49
2022-12-14T01:00:13.125Z,63.75
2022-12-14T01:02:57.840Z,63.84
2022-12-14T01:05:49.237Z,63.72
2022-12-14T01:08:34.775Z,63.45
2022-12-14T01:11:19.521Z,63.67
2022-12-14T01:14:04.182Z,63.79
2022-12-14T01:16:48.925Z,64.93
2022-12-14T01:19:33.700Z,64.62
2022-12-14T01:22:18.561Z,65.67
2022-12-14T01:25:03.329Z,63.88
2022-12-14T01:27:48.095Z,63.20
2022-12-14T01:30:32.680Z,63.52
2022-12-14T01:33:17.447Z,63.12
2022-12-14T01:36:02.202Z,63.31
2022-12-14T01:38:47.033Z,62.88
2022-12-14T01:41:31.859Z,62.22
2022-12-14T01:44:16.723Z,62.71
2022-12-14T01:47:01.394Z,62.78
2022-12-14T01:49:47.384Z,61.89
2022-12-14T01:52:32.470Z,62.94
2022-12-14T01:55:17.218Z,63.24
2022-12-14T01:58:02.030Z,62.39
2022-12-14T02:00:46.787Z,62.16
2022-12-14T02:03:32.284Z,63.16
2022-12-14T02:06:17.875Z,63.34
2022-12-14T02:09:02.480Z,63.18
2022-12-14T02:11:47.233Z,63.22
2022-12-14T02:14:31.884Z,63.22
2022-12-14T02:17:16.595Z,63.30
2022-12-14T02:20:01.241Z,63.07
2022-12-14T02:22:46.134Z,63.59
2022-12-14T02:25:30.791Z,63.12
2022-12-14T02:28:15.496Z,63.82
2022-12-14T02:31:00.211Z,62.87
2022-12-14T02:33:45.033Z,62.89
2022-12-14T02:36:29.780Z,62.94
2022-12-14T02:39:14.689Z,63.43
2022-12-14T02:41:59.608Z,63.31
2022-12-14T02:44:44.334Z,62.93
2022-12-14T02:47:29.272Z,63.85
2022-12-14T02:50:13.962Z,63.45
2022-12-14T02:52:58.664Z,63.81
2022-12-14T02:55:43.406Z,63.63
2022-12-14T02:58:28.062Z,64.25
2022-12-14T03:01:12.860Z,64.65
2022-12-14T03:03:58.069Z,64.08
2022-12-14T03:06:43.360Z,63.10
2022-12-14T03:09:28.073Z,63.38
2022-12-14T03:12:12.980Z,63.71
2022-12-14T03:14:57.601Z,63.30
2022-12-14T03:17:42.527Z,63.65
2022-12-14T03:20:30.263Z,63.91
2022-12-14T03:23:14.962Z,64.04
2022-12-14T03:25:59.784Z,64.74
2022-12-14T03:28:44.680Z,64.01
2022-12-14T03:31:29.592Z,64.40
2022-12-14T03:34:14.334Z,64.29
2022-12-14T03:36:59.097Z,64.60
2022-12-14T03:39:43.809Z,65.34
2022-12-14T03:42:28.620Z,65.56
2022-12-14T03:45:13.344Z,64.81
2022-12-14T03:47:58.072Z,64.49
2022-12-14T03:50:42.930Z,64.66
2022-12-14T03:53:28.005Z,64.79
2022-12-14T03:56:12.944Z,64.74
2022-12-14T03:58:57.752Z,64.23
2022-12-14T04:01:42.628Z,65.00
2022-12-14T04:04:27.731Z,65.47
2022-12-14T04:07:12.471Z,66.02
2022-12-14T04:09:57.111Z,65.53
2022-12-14T04:12:45.307Z,65.54
2022-12-14T04:15:32.702Z,64.79
2022-12-14T04:18:17.440Z,64.19
2022-12-14T04:21:02.200Z,65.18
2022-12-14T04:23:46.848Z,65.29
2022-12-14T04:26:31.680Z,65.38
2022-12-14T04:29:16.467Z,64.27
2022-12-14T04:32:01.343Z,63.13
2022-12-14T04:34:46.606Z,62.84
2022-12-14T04:37:31.225Z,63.69
2022-12-14T04:40:15.941Z,64.48
2022-12-14T04:43:00.605Z,64.63
2022-12-14T04:45:45.506Z,64.54
2022-12-14T04:48:30.659Z,64.21
2022-12-14T04:51:15.570Z,64.00
2022-12-14T04:54:00.267Z,64.09
2022-12-14T04:56:45.126Z,64.97
2022-12-14T04:59:29.939Z,65.25
2022-12-14T05:02:14.734Z,65.41
2022-12-14T05:05:00.052Z,64.76
2022-12-14T05:07:44.989Z,65.30
2022-12-14T05:10:33.542Z,65.49
2022-12-14T05:13:18.468Z,64.54
2022-12-14T05:16:03.114Z,64.88
2022-12-14T05:18:47.882Z,65.11
2022-12-14T05:21:32.542Z,65.82
2022-12-14T05:24:17.433Z,65.51
2022-12-14T05:27:02.072Z,64.46
2022-12-14T05:29:46.835Z,64.00
2022-12-14T05:32:31.573Z,63.94
2022-12-14T05:35:16.346Z,64.24
2022-12-14T05:38:01.232Z,64.04
2022-12-14T05:40:45.970Z,64.44
2022-12-14T05:43:31.006Z,64.65
2022-12-14T05:46:16.196Z,65.71
2022-12-14T05:49:01.345Z,65.09
2022-12-14T05:51:46.046Z,66.13
2022-12-14T05:54:30.825Z,65.86
2022-12-14T05:57:15.437Z,65.25
2022-12-14T06:00:00.307Z,66.11
2022-12-14T06:02:45.092Z,66.61
2022-12-14T06:05:29.768Z,66.59
2022-12-14T06:08:14.545Z,66.04
2022-12-14T06:10:59.271Z,64.78
2022-12-14T06:13:44.015Z,63.37
2022-12-14T06:16:28.943Z,63.41
2022-12-14T06:19:14.148Z,63.40
2022-12-14T06:21:59.051Z,62.86
2022-12-14T06:24:43.861Z,64.07
2022-12-14T06:27:28.499Z,62.83
2022-12-14T06:30:13.166Z,63.83
2022-12-14T06:32:57.919Z,63.75
2022-12-14T06:35:42.575Z,63.41
2022-12-14T06:38:27.325Z,63.21
2022-12-14T06:41:12.157Z,63.32
2022-12-14T06:43:56.808Z,62.98
2022-12-14T06:46:41.608Z,62.71
2022-12-14T06:49:26.315Z,62.47
2022-12-14T06:52:10.802Z,63.12
2022-12-14T06:54:55.696Z,63.49
2022-12-14T06:57:40.363Z,62.86
2022-12-14T07:00:25.026Z,62.86
2022-12-14T07:03:09.787Z,62.57
2022-12-14T07:05:55.027Z,63.12
2022-12-14T07:08:40.043Z,63.64
2022-12-14T07:11:24.628Z,64.89
2022-12-14T07:14:09.415Z,66.13
2022-12-14T07:16:54.030Z,65.78
2022-12-14T07:19:38.790Z,66.62
2022-12-14T07:22:23.458Z,66.48
2022-12-14T07:25:08.198Z,66.72
2022-12-14T07:27:52.811Z,66.06
2022-12-14T07:30:37.507Z,65.97
2022-12-14T07:33:22.228Z,65.57
2022-12-14T07:36:06.964Z,65.85
2022-12-14T07:38:51.870Z,65.69
2022-12-14T07:41:36.572Z,65.22
2022-12-14T07:44:21.496Z,65.22
2022-12-14T07:47:06.142Z,63.93
2022-12-14T07:49:50.927Z,63.73
2022-12-14T07:52:37.558Z,64.30
2022-12-14T07:55:22.963Z,64.28
2022-12-14T07:58:07.766Z,64.88
2022-12-14T08:00:52.461Z,64.43
2022-12-14T08:03:37.251Z,64.35
2022-12-14T08:06:22.030Z,64.32
2022-12-14T08:09:06.743Z,64.68
2022-12-14T08:11:51.471Z,63.25
2022-12-14T08:14:36.072Z,63.00
2022-12-14T08:17:20.729Z,62.24
2022-12-14T08:20:05.474Z,62.79
2022-12-14T08:22:50.326Z,62.13
2022-12-14T08:25:35.154Z,61.94
2022-12-14T08:28:20.029Z,61.30
2022-12-14T08:31:04.828Z,60.79
2022-12-14T08:33:49.719Z,60.19
2022-12-14T08:36:34.501Z,59.72
2022-12-14T08:39:19.255Z,60.12
2022-12-14T08:42:03.925Z,59.70
2022-12-14T08:44:48.819Z,59.12
2022-12-14T08:47:34.574Z,58.63
2022-12-14T08:50:19.438Z,59.19
2022-12-14T08:53:04.302Z,58.68
2022-12-14T08:55:49.001Z,57.69
2022-12-14T08:58:35.017Z,59.02
2022-12-14T09:01:19.815Z,59.51
2022-12-14T09:04:05.086Z,59.92
2022-12-14T09:06:50.195Z,60.09
2022-12-14T09:09:35.049Z,60.52
2022-12-14T09:12:19.818Z,61.17
2022-12-14T09:15:04.506Z,61.11
2022-12-14T09:17:49.309Z,60.16
2022-12-14T09:20:34.092Z,59.44
2022-12-14T09:23:18.888Z,59.77
2022-12-14T09:26:03.623Z,59.68
2022-12-14T09:28:48.398Z,58.50
2022-12-14T09:31:33.111Z,58.56
2022-12-14T09:34:18.322Z,57.50
2022-12-14T09:37:03.105Z,56.87
2022-12-14T09:39:47.895Z,56.23
2022-12-14T09:42:33.669Z,55.77
2022-12-14T09:45:18.484Z,54.90
2022-12-14T09:48:03.303Z,55.75
2022-12-14T09:50:47.958Z,54.12
2022-12-14T09:53:32.794Z,53.81
2022-12-14T09:56:17.903Z,53.39
2022-12-14T09:59:02.604Z,53.95
2022-12-14T10:02:13.953Z,53.10
2022-12-14T10:04:52.059Z,54.50
2022-12-14T10:07:36.860Z,55.33
2022-12-14T10:10:21.517Z,55.23
2022-12-14T10:13:06.263Z,54.61
2022-12-14T10:15:51.039Z,55.66
2022-12-14T10:21:40.992Z,56.76
2022-12-14T10:24:25.670Z,56.45
2022-12-14T10:27:10.304Z,56.83
2022-12-14T10:29:55.073Z,57.23
2022-12-14T10:32:39.912Z,57.18
2022-12-14T10:35:24.677Z,57.13
2022-12-14T10:38:09.523Z,56.61
2022-12-14T10:40:54.329Z,56.47
2022-12-14T10:43:39.078Z,55.69
2022-12-14T10:46:24.008Z,55.80
2022-12-14T10:49:08.639Z,55.95
2022-12-14T10:51:53.447Z,56.33
2022-12-14T10:54:38.126Z,56.14
2022-12-14T10:57:22.859Z,55.19
2022-12-14T11:00:10.081Z,53.47
2022-12-14T11:02:55.363Z,51.92
2022-12-14T11:05:40.440Z,52.88
2022-12-14T11:08:25.262Z,52.80
2022-12-14T11:11:15.474Z,53.68
2022-12-14T11:14:03.683Z,54.71
2022-12-14T11:16:48.542Z,55.55
2022-12-14T11:19:33.395Z,54.89
2022-12-14T11:22:22.167Z,54.96
2022-12-14T11:25:07.362Z,56.03
2022-12-14T11:27:52.114Z,57.22
2022-12-14T11:30:36.906Z,57.14
2022-12-14T11:33:21.639Z,55.99
2022-12-14T11:36:06.471Z,55.87
2022-12-14T11:38:51.368Z,56.18
2022-12-14T11:41:36.203Z,56.37
2022-12-14T11:44:20.949Z,56.92
2022-12-14T11:47:05.892Z,56.91
2022-12-14T11:49:50.622Z,57.64
2022-12-14T11:52:35.194Z,58.21
2022-12-14T11:55:26.148Z,57.97
2022-12-14T11:58:11.649Z,57.21
2022-12-14T12:00:56.619Z,57.06
2022-12-14T12:03:41.327Z,56.68
2022-12-14T12:06:25.959Z,55.66
2022-12-14T12:09:10.884Z,56.38
2022-12-14T12:11:55.590Z,56.24
2022-12-14T12:14:40.439Z,56.40
2022-12-14T12:17:25.112Z,55.92
2022-12-14T12:20:09.859Z,55.79
2022-12-14T12:22:54.733Z,55.85
2022-12-14T12:25:39.570Z,55.01
2022-12-14T12:28:24.732Z,55.94
2022-12-14T12:31:11.209Z,55.91
2022-12-14T12:33:56.335Z,56.86
2022-12-14T12:36:56.892Z,58.07
2022-12-14T12:39:45.969Z,58.77
2022-12-14T12:42:30.762Z,58.32
2022-12-14T12:45:15.693Z,58.42
2022-12-14T12:48:00.959Z,57.66
2022-12-14T12:50:49.766Z,58.36
2022-12-14T12:53:34.723Z,58.63
2022-12-14T12:56:19.831Z,58.31
2022-12-14T12:59:04.584Z,58.00
2022-12-14T13:01:49.553Z,57.84
2022-12-14T13:04:34.708Z,57.28
2022-12-14T13:07:19.751Z,57.16
2022-12-14T13:10:06.104Z,57.07
2022-12-14T13:12:51.467Z,57.36
2022-12-14T13:15:37.536Z,57.04
2022-12-14T13:18:41.219Z,56.88
2022-12-14T13:21:27.188Z,57.45
2022-12-14T13:24:11.925Z,57.87
2022-12-14T13:26:58.291Z,57.95
2022-12-14T13:29:43.631Z,57.86
2022-12-14T13:32:32.310Z,57.75
2022-12-14T13:35:21.691Z,57.43
2022-12-14T13:38:06.423Z,57.66
2022-12-14T13:40:51.409Z,57.79
2022-12-14T13:43:36.036Z,58.21
2022-12-14T13:46:20.892Z,58.50
2022-12-14T13:49:05.744Z,59.23
2022-12-14T13:51:50.549Z,59.71
2022-12-14T13:54:35.829Z,59.35
2022-12-14T13:57:21.075Z,58.94
2022-12-14T14:00:05.857Z,58.74
2022-12-14T14:02:51.088Z,59.28
2022-12-14T14:05:35.981Z,58.98
2022-12-14T14:08:23.595Z,59.17
2022-12-14T14:11:36.780Z,59.28
2022-12-14T14:14:17.831Z,59.14
2022-12-14T14:17:02.773Z,59.21
2022-12-14T14:19:49.680Z,58.70
2022-12-14T14:22:34.955Z,58.88
2022-12-14T14:25:19.642Z,58.95
2022-12-14T14:28:04.645Z,59.49
2022-12-14T14:30:49.512Z,60.44
2022-12-14T14:33:49.722Z,61.43
2022-12-14T14:36:34.557Z,61.15
2022-12-14T14:39:54.158Z,61.19
2022-12-14T14:42:24.169Z,61.13
2022-12-14T14:45:08.875Z,61.06
2022-12-14T14:47:53.767Z,60.37
2022-12-14T14:50:38.621Z,61.37
2022-12-14T14:53:23.437Z,61.44
2022-12-14T14:56:08.171Z,61.71
2022-12-14T14:58:52.783Z,61.18
2022-12-14T15:01:37.592Z,60.96
2022-12-14T15:04:23.911Z,60.88
2022-12-14T15:07:08.985Z,60.81
2022-12-14T15:09:53.846Z,61.26
2022-12-14T15:12:38.588Z,60.47
2022-12-14T15:15:23.402Z,60.77
2022-12-14T15:18:08.136Z,60.83
2022-12-14T15:20:52.987Z,61.13
2022-12-14T15:23:37.638Z,60.59
2022-12-14T15:26:22.519Z,60.96
2022-12-14T15:29:07.160Z,60.81
2022-12-14T15:31:56.147Z,61.07
2022-12-14T15:34:43.927Z,60.68
2022-12-14T15:37:28.755Z,61.82
2022-12-14T15:42:58.595Z,61.76
2022-12-14T15:45:43.317Z,61.83
2022-12-14T15:48:28.106Z,61.35
2022-12-14T15:51:12.809Z,61.21
2022-12-14T15:53:57.571Z,61.04
2022-12-14T15:56:42.267Z,61.16
2022-12-14T15:59:27.102Z,61.07
2022-12-14T16:02:11.891Z,61.28
2022-12-14T16:04:57.035Z,62.41
2022-12-14T16:07:41.715Z,63.25
2022-12-14T16:10:26.478Z,63.25
2022-12-14T16:13:11.235Z,62.32
2022-12-14T16:15:55.977Z,62.31
2022-12-14T16:18:40.844Z,62.23
2022-12-14T16:21:25.662Z,62.89
2022-12-14T16:24:10.547Z,63.74
2022-12-14T16:26:55.377Z,63.29
2022-12-14T16:29:45.035Z,63.30
2022-12-14T16:32:34.596Z,62.91
2022-12-14T16:35:19.360Z,63.43
2022-12-14T16:38:04.175Z,64.16
2022-12-14T16:40:49.033Z,64.89
2022-12-14T16:43:34.170Z,64.52
2022-12-14T16:46:19.765Z,65.27
2022-12-14T16:49:04.473Z,64.51
2022-12-14T16:52:06.765Z,64.64
2022-12-14T16:54:52.670Z,64.36
2022-12-14T16:57:37.537Z,64.27
2022-12-14T17:00:22.270Z,64.20
2022-12-14T17:03:07.206Z,63.78
2022-12-14T17:05:52.460Z,64.29
2022-12-14T17:08:37.155Z,64.46
2022-12-14T17:11:22.130Z,64.02
2022-12-14T17:14:07.027Z,64.18
2022-12-14T17:16:51.757Z,63.51
2022-12-14T17:19:37.216Z,63.27
2022-12-14T17:22:21.906Z,63.76
2022-12-14T17:25:06.642Z,63.72
2022-12-14T17:27:51.307Z,64.02
2022-12-14T17:30:36.109Z,64.02
2022-12-14T17:33:21.174Z,63.36
2022-12-14T17:36:06.021Z,63.13
2022-12-14T17:38:50.807Z,63.10
2022-12-14T17:41:35.582Z,63.14
2022-12-14T17:44:20.391Z,63.01
2022-12-14T17:47:05.133Z,62.72
2022-12-14T17:49:50.153Z,62.28
2022-12-14T17:52:34.938Z,62.40
2022-12-14T17:55:19.587Z,62.75
2022-12-14T17:58:04.397Z,63.27
2022-12-14T18:00:49.205Z,62.86
2022-12-14T18:03:34.496Z,62.50
2022-12-14T18:06:19.755Z,62.45
2022-12-14T18:09:04.563Z,63.25
2022-12-14T18:12:21.498Z,63.27
2022-12-14T18:14:54.329Z,62.63
2022-12-14T18:17:38.979Z,63.38
2022-12-14T18:20:23.685Z,63.28
2022-12-14T18:23:08.443Z,63.02
2022-12-14T18:25:53.206Z,63.16
2022-12-14T18:28:38.008Z,63.54
2022-12-14T18:31:22.746Z,63.39
2022-12-14T18:34:07.415Z,63.59
2022-12-14T18:36:52.170Z,63.58
2022-12-14T18:39:36.852Z,63.76
2022-12-14T18:42:22.806Z,63.08
2022-12-14T18:45:07.780Z,63.36
2022-12-14T18:47:52.718Z,63.83
2022-12-14T18:50:42.533Z,63.88
2022-12-14T18:53:28.215Z,63.52
2022-12-14T18:56:13.224Z,63.92
2022-12-14T18:58:58.005Z,64.18
2022-12-14T19:01:43.064Z,63.65
2022-12-14T19:04:28.196Z,63.80
2022-12-14T19:07:13.100Z,63.21
2022-12-14T19:09:57.899Z,62.95
2022-12-14T19:12:42.603Z,62.50
2022-12-14T19:15:27.340Z,62.21
2022-12-14T19:18:12.080Z,62.21
2022-12-14T19:20:56.908Z,61.93
2022-12-14T19:23:41.728Z,61.99
2022-12-14T19:26:26.562Z,61.78
2022-12-14T19:29:11.230Z,61.67
2022-12-14T19:31:59.131Z,61.58
2022-12-14T19:34:48.584Z,61.64
2022-12-14T19:37:33.219Z,62.36
2022-12-14T19:40:18.000Z,62.58
2022-12-14T19:43:02.567Z,62.28
2022-12-14T19:45:47.446Z,62.17
2022-12-14T19:48:32.261Z,62.70
2022-12-14T19:51:16.974Z,62.71
2022-12-14T19:54:01.751Z,62.23
2022-12-14T19:56:46.558Z,62.25
2022-12-14T19:59:33.883Z,62.53
2022-12-14T20:02:18.661Z,62.38
2022-12-14T20:05:03.916Z,62.31
2022-12-14T20:07:48.707Z,62.31
2022-12-14T20:10:33.418Z,62.19
2022-12-14T20:13:18.230Z,62.36
2022-12-14T20:16:02.972Z,62.11
2022-12-14T20:18:48.279Z,62.25
2022-12-14T20:21:33.195Z,62.15
2022-12-14T20:24:17.920Z,62.21
2022-12-14T20:27:02.761Z,62.05
2022-12-14T20:29:47.542Z,61.74
2022-12-14T20:32:32.130Z,61.88
2022-12-14T20:35:16.913Z,62.00
2022-12-14T20:38:01.903Z,62.11
2022-12-14T20:40:46.567Z,61.28
2022-12-14T20:43:31.772Z,61.60
2022-12-14T20:46:17.139Z,61.70
2022-12-14T20:49:01.665Z,61.54
2022-12-14T20:51:46.421Z,61.64
2022-12-14T20:54:31.185Z,61.51
2022-12-14T20:57:15.982Z,61.77
2022-12-14T21:00:00.923Z,62.08
2022-12-14T21:02:45.682Z,61.57
2022-12-14T21:05:30.932Z,61.84
2022-12-14T21:08:15.764Z,62.02
2022-12-14T21:11:00.463Z,61.58
2022-12-14T21:13:45.320Z,61.92
2022-12-14T21:16:29.972Z,62.36
2022-12-14T21:19:15.790Z,62.83
2022-12-14T21:22:00.900Z,62.62
2022-12-14T21:25:03.677Z,62.31
2022-12-14T21:27:50.254Z,62.22
2022-12-14T21:30:35.019Z,61.97
2022-12-14T21:33:19.706Z,61.95
2022-12-14T21:36:04.383Z,61.78
2022-12-14T21:38:49.113Z,61.98
2022-12-14T21:41:33.951Z,62.10
2022-12-14T21:44:18.650Z,61.71
2022-12-14T21:47:03.565Z,61.84
2022-12-14T21:49:48.455Z,61.81
2022-12-14T21:52:33.746Z,61.41
2022-12-14T21:55:18.530Z,61.19
2022-12-14T21:58:03.302Z,61.17
2022-12-14T22:00:48.111Z,61.81
2022-12-14T22:03:33.316Z,61.41
2022-12-14T22:06:18.670Z,61.44
2022-12-14T22:09:03.355Z,61.69
2022-12-14T22:11:48.233Z,61.36
2022-12-14T22:14:32.919Z,61.67
2022-12-14T22:17:17.726Z,61.69
2022-12-14T22:20:02.420Z,61.78
2022-12-14T22:22:47.368Z,62.22
2022-12-14T22:25:32.049Z,64.16
2022-12-14T22:28:16.955Z,63.18
2022-12-14T22:31:01.569Z,64.44
2022-12-14T22:33:46.437Z,64.72
2022-12-14T22:36:34.755Z,64.69
2022-12-14T22:39:19.425Z,64.87
2022-12-14T22:42:04.246Z,63.89
2022-12-14T22:44:48.889Z,62.92
2022-12-14T22:47:33.635Z,63.24
2022-12-14T22:50:18.400Z,63.93
2022-12-14T22:53:03.183Z,63.88
2022-12-14T22:55:49.959Z,63.65
2022-12-14T22:58:34.803Z,63.21
2022-12-14T23:01:19.600Z,63.18
2022-12-14T23:04:04.825Z,62.72
2022-12-14T23:06:49.870Z,62.35
2022-12-14T23:09:34.532Z,62.35
2022-12-14T23:12:21.930Z,62.26
2022-12-14T23:15:07.293Z,62.01
2022-12-14T23:17:51.972Z,62.31
2022-12-14T23:20:36.860Z,63.16
2022-12-14T23:23:21.620Z,63.31
2022-12-14T23:26:06.399Z,63.32
2022-12-14T23:28:51.126Z,63.42
2022-12-14T23:31:35.795Z,62.75
2022-12-14T23:34:20.584Z,62.43
2022-12-14T23:37:05.379Z,62.86
2022-12-14T23:39:50.232Z,62.57
2022-12-14T23:42:34.967Z,61.96
2022-12-14T23:45:19.882Z,62.61
2022-12-14T23:48:04.596Z,62.92
2022-12-14T23:50:49.293Z,62.59
2022-12-14T23:53:34.166Z,62.84
2022-12-14T23:56:19.217Z,63.16
2022-12-14T23:59:04.045Z,63.25
